Time;durP1;ratioP1;P1;durP2;ratioP2;P2;SDS_P1;SDS_P2;PMS_P1;PMS_P2;Temp;Humidity;BMP_temperature;BMP_pressure;BME280_temperature;BME280_humidity;BME280_pressure;Samples;Min_cycle;Max_cycle;Signal;HPM_P1;HPM_P2
2024/02/20 00:01:12;;;;;;;;;;;;;;;10.26;86.52;99151.49;68430;1270;1016907;-69
2024/02/20 00:04:20;;;;;;;;;;;;;;;10.27;86.64;99147.29;68433;1279;1015140;-69
2024/02/20 00:07:22;;;;;;;;;;;;;;;10.26;86.67;99158.34;68409;1279;1015596;-69
2024/02/20 00:10:25;;;;;;;;;;;;;;;10.10;88.07;99158.30;68434;1279;1015250;-70
2024/02/20 00:13:27;;;;;;;;;;;;;;;10.07;88.99;99159.85;68428;1279;1016544;-69
2024/02/20 00:16:30;;;;;;;;;;;;;;;10.13;88.29;99161.30;68416;1280;1015476;-69
2024/02/20 00:19:33;;;;;;;;;;;;;;;10.16;87.92;99166.88;68443;1279;1016030;-70
2024/02/20 00:22:36;;;;;;;;;;;;;;;10.19;88.08;99171.64;68405;1279;1016194;-70
2024/02/20 00:25:39;;;;;;;;;;;;;;;10.15;89.01;99170.30;68426;1279;1015555;-69
2024/02/20 00:28:42;;;;;;;;;;;;;;;10.26;88.06;99171.98;68416;1279;1015335;-69
2024/02/20 00:31:44;;;;;;;;;;;;;;;10.22;88.00;99174.09;68429;1279;1015644;-69
2024/02/20 00:34:47;;;;;;;;;;;;;;;10.24;87.15;99172.59;68439;1279;1015763;-69
2024/02/20 00:37:49;;;;;;;;;;;;;;;10.27;86.79;99166.34;68425;1279;1016172;-69
2024/02/20 00:40:53;;;;;;;;;;;;;;;10.32;86.10;99168.66;68402;1280;1015365;-69
2024/02/20 00:43:55;;;;;;;;;;;;;;;10.27;86.22;99170.34;68445;1280;1015721;-69
2024/02/20 00:46:58;;;;;;;;;;;;;;;10.21;86.59;99167.16;68425;1280;1015551;-69
2024/02/20 00:50:00;;;;;;;;;;;;;;;10.24;86.33;99167.18;68411;1279;1015756;-70
2024/02/20 00:53:03;;;;;;;;;;;;;;;10.23;86.33;99164.44;68406;1279;1016927;-69
2024/02/20 00:56:06;;;;;;;;;;;;;;;10.22;86.83;99161.53;68420;1279;1015679;-69
2024/02/20 00:59:09;;;;;;;;;;;;;;;10.29;86.50;99160.11;68431;1279;1015421;-67
2024/02/20 01:02:11;;;;;;;;;;;;;;;10.31;86.06;99158.38;68410;1279;1015735;-68
2024/02/20 01:05:14;;;;;;;;;;;;;;;10.34;86.46;99150.91;68436;1279;1015443;-69
2024/02/20 01:08:16;;;;;;;;;;;;;;;10.42;85.65;99147.02;68421;1279;1016127;-69
2024/02/20 01:11:19;;;;;;;;;;;;;;;10.53;84.81;99142.54;68408;1279;1015974;-69
2024/02/20 01:14:21;;;;;;;;;;;;;;;10.59;84.69;99138.89;68419;1279;1015932;-69
2024/02/20 01:17:24;;;;;;;;;;;;;;;10.63;84.38;99141.67;68431;1279;1015540;-69
2024/02/20 01:20:27;;;;;;;;;;;;;;;10.63;84.23;99136.56;68411;1280;1015666;-69
2024/02/20 01:23:30;;;;;;;;;;;;;;;10.61;83.94;99135.10;68426;1280;1015873;-69
2024/02/20 01:26:32;;;;;;;;;;;;;;;10.61;84.50;99132.16;68409;1279;1015964;-70
2024/02/20 01:29:35;;;;;;;;;;;;;;;10.65;83.41;99130.70;68405;1279;1015068;-69
2024/02/20 01:32:37;;;;;;;;;;;;;;;10.56;83.81;99130.50;68395;1279;1015976;-70
2024/02/20 01:35:41;;;;;;;;;;;;;;;10.37;85.29;99125.91;68415;1279;1016212;-69
2024/02/20 01:38:43;;;;;;;;;;;;;;;10.46;85.39;99122.69;68427;1279;1016059;-69
2024/02/20 01:41:47;;;;;;;;;;;;;;;10.50;85.54;99117.69;68414;1279;1015933;-69
2024/02/20 01:44:49;;;;;;;;;;;;;;;10.62;84.52;99121.61;68419;1279;1015401;-69
2024/02/20 01:47:52;;;;;;;;;;;;;;;10.60;84.28;99119.97;68423;1279;1015534;-70
2024/02/20 01:50:55;;;;;;;;;;;;;;;10.53;84.60;99123.48;68432;1279;1016076;-69
2024/02/20 01:53:58;;;;;;;;;;;;;;;10.39;85.64;99117.59;68413;1279;1015993;-69
2024/02/20 01:57:02;;;;;;;;;;;;;;;10.57;84.41;99120.09;68409;1279;1015248;-69
2024/02/20 02:00:05;;;;;;;;;;;;;;;10.54;84.61;99121.17;68410;1279;1015319;-69
2024/02/20 02:03:08;;;;;;;;;;;;;;;10.60;84.55;99111.35;68391;1279;1015862;-69
2024/02/20 02:06:11;;;;;;;;;;;;;;;10.65;84.64;99113.02;68412;1279;1015548;-69
2024/02/20 02:09:14;;;;;;;;;;;;;;;10.75;83.06;99111.44;68424;1279;1016312;-69
2024/02/20 02:12:16;;;;;;;;;;;;;;;10.58;84.07;99110.13;68415;1279;1015383;-69
2024/02/20 02:15:19;;;;;;;;;;;;;;;10.57;84.40;99113.82;68392;1279;1016516;-69
2024/02/20 02:18:21;;;;;;;;;;;;;;;10.45;85.22;99113.11;68402;1279;1015469;-69
2024/02/20 02:21:24;;;;;;;;;;;;;;;10.35;86.31;99112.43;68427;1279;1016003;-68
2024/02/20 02:24:27;;;;;;;;;;;;;;;10.31;87.01;99111.95;68418;1279;1015467;-70
2024/02/20 02:27:29;;;;;;;;;;;;;;;10.30;87.13;99110.02;68425;1279;1015909;-69
2024/02/20 02:30:31;;;;;;;;;;;;;;;10.38;86.54;99109.77;68403;1279;1015968;-69
2024/02/20 02:33:34;;;;;;;;;;;;;;;10.50;85.83;99110.03;68425;1280;1015646;-67
2024/02/20 02:36:37;;;;;;;;;;;;;;;10.53;85.46;99111.62;68411;1280;1016230;-69
2024/02/20 02:39:40;;;;;;;;;;;;;;;10.54;85.43;99107.69;68419;1279;1015613;-70
2024/02/20 02:42:42;;;;;;;;;;;;;;;10.48;86.39;99111.91;68404;1279;1016097;-69
2024/02/20 02:45:45;;;;;;;;;;;;;;;10.50;86.28;99108.98;68397;1279;1016095;-69
2024/02/20 02:48:49;;;;;;;;;;;;;;;10.50;86.90;99106.19;68414;1279;1015996;-70
2024/02/20 02:51:51;;;;;;;;;;;;;;;10.70;85.17;99105.76;68409;1279;1016009;-69
2024/02/20 02:54:57;;;;;;;;;;;;;;;10.62;85.96;99105.88;68413;1279;1016524;-69
2024/02/20 02:57:59;;;;;;;;;;;;;;;10.57;86.49;99112.27;68407;1279;1016009;-69
2024/02/20 03:01:02;;;;;;;;;;;;;;;10.63;86.52;99111.37;68411;1279;1015333;-70
2024/02/20 03:04:04;;;;;;;;;;;;;;;10.64;86.76;99109.23;68400;1279;1015424;-69
2024/02/20 03:07:07;;;;;;;;;;;;;;;10.56;87.64;99110.05;68417;1279;1016038;-70
2024/02/20 03:10:11;;;;;;;;;;;;;;;10.57;87.37;99108.60;68409;1279;1016180;-69
2024/02/20 03:13:14;;;;;;;;;;;;;;;10.38;89.07;99111.02;68415;1279;1015237;-69
2024/02/20 03:16:16;;;;;;;;;;;;;;;10.37;89.71;99108.28;68399;1279;1016322;-69
2024/02/20 03:19:20;;;;;;;;;;;;;;;10.72;86.81;99102.34;68394;1279;1015616;-69
2024/02/20 03:22:22;;;;;;;;;;;;;;;10.74;86.58;99108.33;68404;1279;1016131;-69
2024/02/20 03:25:26;;;;;;;;;;;;;;;10.75;86.57;99114.23;68421;1279;1015826;-69
2024/02/20 03:28:29;;;;;;;;;;;;;;;10.65;87.24;99109.02;68428;1279;1015397;-69
2024/02/20 03:31:32;;;;;;;;;;;;;;;10.50;89.02;99109.51;68403;1279;1015797;-70
2024/02/20 03:34:34;;;;;;;;;;;;;;;10.44;89.98;99112.66;68415;1279;1015483;-69
2024/02/20 03:37:37;;;;;;;;;;;;;;;10.34;91.57;99113.02;68415;1279;1016120;-68
2024/02/20 03:40:40;;;;;;;;;;;;;;;10.35;92.14;99117.62;68335;1281;1015901;-69
2024/02/20 03:43:43;;;;;;;;;;;;;;;10.29;93.15;99121.48;68328;1281;1016249;-69
2024/02/20 03:46:45;;;;;;;;;;;;;;;10.32;93.17;99122.54;68346;1281;1015917;-69
2024/02/20 03:49:50;;;;;;;;;;;;;;;10.37;92.64;99121.53;68335;1281;1015753;-69
2024/02/20 03:52:53;;;;;;;;;;;;;;;10.29;94.06;99117.27;68330;1281;1015383;-69
2024/02/20 03:55:55;;;;;;;;;;;;;;;10.34;94.36;99119.84;68336;1281;1015557;-68
2024/02/20 03:58:58;;;;;;;;;;;;;;;10.18;95.38;99127.11;68339;1281;1015794;-69
2024/02/20 04:02:01;;;;;;;;;;;;;;;10.23;95.53;99123.70;68340;1281;1015593;-69
2024/02/20 04:05:04;;;;;;;;;;;;;;;10.25;95.72;99122.04;68347;1281;1015573;-69
2024/02/20 04:08:08;;;;;;;;;;;;;;;10.22;96.30;99135.31;68342;1281;1015919;-69
2024/02/20 04:11:10;;;;;;;;;;;;;;;10.15;97.02;99138.13;68325;1281;1015203;-69
2024/02/20 04:14:13;;;;;;;;;;;;;;;10.12;97.61;99133.25;68336;1281;1015728;-69
2024/02/20 04:17:15;;;;;;;;;;;;;;;10.18;96.91;99128.04;68334;1281;1015139;-69
2024/02/20 04:20:18;;;;;;;;;;;;;;;10.27;95.84;99116.84;68339;1281;1014444;-69
2024/02/20 04:23:20;;;;;;;;;;;;;;;10.43;94.40;99118.09;68330;1281;1016062;-69
2024/02/20 04:26:23;;;;;;;;;;;;;;;10.47;93.34;99122.12;68347;1280;1014288;-69
2024/02/20 04:29:25;;;;;;;;;;;;;;;10.47;92.93;99129.09;68342;1281;1014431;-69
2024/02/20 04:32:28;;;;;;;;;;;;;;;10.42;93.59;99127.25;68334;1281;1016670;-69
2024/02/20 04:35:31;;;;;;;;;;;;;;;10.42;93.51;99124.30;68339;1281;1015365;-69
2024/02/20 04:38:34;;;;;;;;;;;;;;;10.37;94.49;99119.45;68351;1281;1015837;-69
2024/02/20 04:41:36;;;;;;;;;;;;;;;10.40;94.56;99122.98;68351;1281;1015471;-69
2024/02/20 04:44:39;;;;;;;;;;;;;;;10.39;95.10;99126.72;68341;1281;1015315;-69
2024/02/20 04:47:41;;;;;;;;;;;;;;;10.49;94.35;99128.06;68345;1281;1015983;-68
2024/02/20 04:50:44;;;;;;;;;;;;;;;10.44;95.38;99122.42;68347;1281;1015732;-68
2024/02/20 04:53:47;;;;;;;;;;;;;;;10.46;95.38;99128.93;68332;1281;1015705;-69
2024/02/20 04:56:50;;;;;;;;;;;;;;;10.50;95.21;99131.02;68344;1281;1015164;-70
2024/02/20 04:59:52;;;;;;;;;;;;;;;10.54;95.22;99131.64;68340;1281;1015288;-69
2024/02/20 05:02:56;;;;;;;;;;;;;;;10.57;95.18;99126.76;68351;1281;1016057;-69
2024/02/20 05:05:58;;;;;;;;;;;;;;;10.48;96.26;99132.16;68345;1281;1015392;-68
2024/02/20 05:09:01;;;;;;;;;;;;;;;10.42;96.79;99133.39;68332;1281;1015664;-69
2024/02/20 05:12:04;;;;;;;;;;;;;;;10.47;96.77;99131.48;68362;1281;1015385;-69
2024/02/20 05:15:07;;;;;;;;;;;;;;;10.44;96.60;99133.45;68338;1281;1015199;-69
2024/02/20 05:18:10;;;;;;;;;;;;;;;10.35;97.55;99135.30;68350;1281;1015347;-66
2024/02/20 05:21:12;;;;;;;;;;;;;;;10.50;96.18;99133.59;68341;1281;1015735;-69
2024/02/20 05:24:15;;;;;;;;;;;;;;;10.65;94.56;99132.27;68349;1281;1015768;-69
2024/02/20 05:27:17;;;;;;;;;;;;;;;10.56;95.38;99134.89;68350;1281;1015639;-69
2024/02/20 05:30:20;;;;;;;;;;;;;;;10.52;95.91;99139.96;68343;1281;1016188;-69
2024/02/20 05:33:23;;;;;;;;;;;;;;;10.56;95.69;99140.83;68338;1281;1015727;-69
2024/02/20 05:36:29;;;;;;;;;;;;;;;10.52;96.00;99141.38;68342;1281;1015348;-68
2024/02/20 05:39:32;;;;;;;;;;;;;;;10.48;96.44;99133.36;68397;1279;1014899;-60
2024/02/20 05:42:35;;;;;;;;;;;;;;;10.45;96.75;99137.73;68388;1279;1016133;-68
2024/02/20 05:45:37;;;;;;;;;;;;;;;10.49;96.80;99137.90;68391;1279;1015543;-69
2024/02/20 05:48:40;;;;;;;;;;;;;;;10.44;97.36;99142.20;68392;1279;1015852;-69
2024/02/20 05:51:42;;;;;;;;;;;;;;;10.53;96.53;99144.98;68374;1279;1016185;-69
2024/02/20 05:54:46;;;;;;;;;;;;;;;10.65;95.60;99146.05;68395;1279;1016041;-69
2024/02/20 05:57:49;;;;;;;;;;;;;;;10.87;93.55;99146.25;68404;1279;1016113;-69
2024/02/20 06:00:52;;;;;;;;;;;;;;;10.87;93.52;99153.45;68385;1279;1015484;-69
2024/02/20 06:03:54;;;;;;;;;;;;;;;10.91;93.23;99157.73;68403;1279;1016149;-69
2024/02/20 06:06:57;;;;;;;;;;;;;;;10.86;94.20;99154.52;68409;1279;1015836;-69
2024/02/20 06:09:59;;;;;;;;;;;;;;;10.93;93.72;99160.92;68400;1279;1014939;-69
2024/02/20 06:13:02;;;;;;;;;;;;;;;10.80;95.38;99153.29;68387;1279;1015897;-69
2024/02/20 06:16:05;;;;;;;;;;;;;;;10.91;94.84;99155.83;68399;1279;1015931;-69
2024/02/20 06:19:07;;;;;;;;;;;;;;;11.09;93.38;99158.81;68392;1279;1015157;-70
2024/02/20 06:22:10;;;;;;;;;;;;;;;11.08;93.20;99161.67;68404;1279;1015995;-63
2024/02/20 06:25:13;;;;;;;;;;;;;;;10.98;93.83;99178.52;68396;1279;1016077;-69
2024/02/20 06:28:18;;;;;;;;;;;;;;;11.01;94.06;99169.57;68403;1279;1015317;-69
2024/02/20 06:31:20;;;;;;;;;;;;;;;11.17;92.29;99167.64;68386;1279;1015955;-69
2024/02/20 06:34:23;;;;;;;;;;;;;;;11.12;92.91;99171.26;68392;1279;1015882;-69
2024/02/20 06:37:25;;;;;;;;;;;;;;;11.14;92.75;99173.96;68405;1279;1015740;-68
2024/02/20 06:40:28;;;;;;;;;;;;;;;11.14;92.55;99173.58;68398;1279;1015418;-69
2024/02/20 06:43:31;;;;;;;;;;;;;;;11.09;93.17;99179.66;68391;1279;1015720;-69
2024/02/20 06:46:33;;;;;;;;;;;;;;;11.13;93.31;99182.56;68394;1279;1015244;-69
2024/02/20 06:49:36;;;;;;;;;;;;;;;11.05;93.90;99186.02;68410;1279;1016108;-69
2024/02/20 06:52:39;;;;;;;;;;;;;;;11.06;94.23;99182.26;68407;1279;1015664;-69
2024/02/20 06:55:42;;;;;;;;;;;;;;;11.09;93.67;99177.36;68398;1279;1015491;-69
2024/02/20 06:58:44;;;;;;;;;;;;;;;11.07;94.61;99175.05;68403;1279;1015522;-69
2024/02/20 07:01:47;;;;;;;;;;;;;;;11.23;93.75;99169.00;68391;1279;1016238;-69
2024/02/20 07:04:50;;;;;;;;;;;;;;;11.34;92.30;99174.52;68405;1279;1016178;-69
2024/02/20 07:07:53;;;;;;;;;;;;;;;11.35;92.59;99175.89;68417;1279;1015877;-68
2024/02/20 07:10:56;;;;;;;;;;;;;;;11.52;91.37;99175.25;68413;1279;1016313;-69
2024/02/20 07:13:58;;;;;;;;;;;;;;;11.60;90.65;99179.29;68421;1279;1015634;-69
2024/02/20 07:17:02;;;;;;;;;;;;;;;11.60;91.79;99175.11;68416;1279;1015561;-69
2024/02/20 07:20:04;;;;;;;;;;;;;;;11.69;90.57;99175.64;68404;1279;1015746;-69
2024/02/20 07:23:07;;;;;;;;;;;;;;;11.67;91.13;99173.48;68395;1279;1015594;-68
2024/02/20 07:26:10;;;;;;;;;;;;;;;11.48;91.74;99172.66;68391;1279;1015892;-69
2024/02/20 07:29:12;;;;;;;;;;;;;;;11.48;92.27;99183.14;68409;1279;1016092;-69
2024/02/20 07:32:15;;;;;;;;;;;;;;;11.50;92.58;99183.05;68405;1279;1016023;-69
2024/02/20 07:35:19;;;;;;;;;;;;;;;11.56;92.35;99180.78;68411;1279;1016137;-69
2024/02/20 07:38:22;;;;;;;;;;;;;;;11.50;92.87;99180.27;68404;1279;1015810;-69
2024/02/20 07:41:24;;;;;;;;;;;;;;;11.47;93.35;99183.58;68405;1279;1015896;-69
2024/02/20 07:44:27;;;;;;;;;;;;;;;11.40;94.38;99185.05;68415;1279;1015560;-69
2024/02/20 07:47:29;;;;;;;;;;;;;;;11.16;96.35;99191.52;68411;1279;1015178;-69
2024/02/20 07:50:32;;;;;;;;;;;;;;;11.16;97.45;99186.07;68426;1279;1015056;-69
2024/02/20 07:53:35;;;;;;;;;;;;;;;11.18;96.96;99177.01;68413;1279;1016067;-69
2024/02/20 07:56:39;;;;;;;;;;;;;;;11.22;96.62;99178.92;68401;1279;1015917;-69
2024/02/20 07:59:42;;;;;;;;;;;;;;;11.21;97.32;99181.38;68401;1279;1015527;-67
2024/02/20 08:02:44;;;;;;;;;;;;;;;11.20;97.46;99181.10;65839;1279;6362537;-69
2024/02/20 08:05:47;;;;;;;;;;;;;;;11.29;96.97;99177.80;68392;1279;1015853;-69
2024/02/20 08:08:49;;;;;;;;;;;;;;;11.21;98.28;99175.59;68431;1279;1015615;-66
2024/02/20 08:11:52;;;;;;;;;;;;;;;11.35;96.74;99175.87;68419;1279;1015988;-69
2024/02/20 08:14:55;;;;;;;;;;;;;;;11.42;96.04;99174.05;68438;1279;1015572;-69
2024/02/20 08:18:05;;;;;;;;;;;;;;;11.42;95.51;99173.69;68401;1279;1016279;-69
2024/02/20 08:21:10;;;;;;;;;;;;;;;11.34;96.63;99181.17;68389;1279;1016266;-69
2024/02/20 08:24:12;;;;;;;;;;;;;;;11.35;96.69;99174.85;68392;1279;1015448;-69
2024/02/20 08:27:15;;;;;;;;;;;;;;;11.45;96.38;99185.64;68398;1279;1015841;-69
2024/02/20 08:30:22;;;;;;;;;;;;;;;11.32;97.58;99181.48;68394;1279;1015809;-69
2024/02/20 08:33:24;;;;;;;;;;;;;;;11.39;97.14;99180.16;68416;1279;1016054;-69
2024/02/20 08:36:27;;;;;;;;;;;;;;;11.29;97.90;99184.09;68410;1279;1015706;-67
2024/02/20 08:39:29;;;;;;;;;;;;;;;11.32;98.10;99182.34;68412;1279;1015729;-69
2024/02/20 08:42:32;;;;;;;;;;;;;;;11.33;97.88;99181.23;68406;1279;1015748;-69
2024/02/20 08:45:34;;;;;;;;;;;;;;;11.46;97.71;99177.51;68407;1279;1016059;-68
2024/02/20 08:48:37;;;;;;;;;;;;;;;11.48;97.49;99183.86;68397;1279;1015690;-69
2024/02/20 08:51:40;;;;;;;;;;;;;;;11.43;98.62;99183.64;68399;1279;1015611;-69
2024/02/20 08:54:43;;;;;;;;;;;;;;;11.61;97.71;99182.23;68411;1279;1015534;-69
2024/02/20 08:57:45;;;;;;;;;;;;;;;11.66;98.38;99186.48;68407;1279;1016111;-69
2024/02/20 09:00:48;;;;;;;;;;;;;;;11.63;98.42;99195.22;68412;1279;1015989;-69
2024/02/20 09:03:50;;;;;;;;;;;;;;;11.58;99.35;99191.86;68407;1279;1014425;-69
2024/02/20 09:06:53;;;;;;;;;;;;;;;11.61;98.88;99191.88;68402;1279;1015344;-69
2024/02/20 09:09:56;;;;;;;;;;;;;;;11.57;98.42;99194.73;68405;1279;1015245;-69
2024/02/20 09:12:58;;;;;;;;;;;;;;;11.61;99.19;99195.17;68405;1279;1015860;-69
2024/02/20 09:16:01;;;;;;;;;;;;;;;11.82;96.71;99189.40;68412;1279;1015688;-69
2024/02/20 09:19:03;;;;;;;;;;;;;;;11.85;96.31;99187.66;68396;1279;1015851;-69
2024/02/20 09:22:09;;;;;;;;;;;;;;;12.01;94.88;99189.65;68404;1279;1015891;-69
2024/02/20 09:25:12;;;;;;;;;;;;;;;11.89;96.21;99196.16;68415;1279;1015499;-60
2024/02/20 09:28:15;;;;;;;;;;;;;;;11.84;95.97;99198.40;68431;1279;1016187;-69
2024/02/20 09:31:17;;;;;;;;;;;;;;;11.89;95.81;99201.61;68403;1279;1016106;-69
2024/02/20 09:34:21;;;;;;;;;;;;;;;11.89;95.46;99198.91;68404;1279;1015716;-69
2024/02/20 09:37:23;;;;;;;;;;;;;;;11.85;95.83;99203.58;68422;1279;1014750;-69
2024/02/20 09:40:26;;;;;;;;;;;;;;;11.84;96.04;99212.23;68421;1279;1015633;-70
2024/02/20 09:43:28;;;;;;;;;;;;;;;11.92;95.71;99216.83;68424;1279;1016029;-69
2024/02/20 09:46:31;;;;;;;;;;;;;;;11.98;94.39;99222.64;68415;1279;1015855;-69
2024/02/20 09:49:34;;;;;;;;;;;;;;;11.82;92.49;99230.03;68415;1279;1016208;-70
2024/02/20 09:52:36;;;;;;;;;;;;;;;11.74;90.69;99232.45;68426;1279;1014671;-69
2024/02/20 09:55:39;;;;;;;;;;;;;;;11.84;89.57;99231.46;68415;1279;1015615;-70
2024/02/20 09:58:41;;;;;;;;;;;;;;;11.67;89.07;99242.10;68425;1279;1015732;-69
2024/02/20 10:01:44;;;;;;;;;;;;;;;11.60;90.11;99234.84;68414;1279;1015675;-69
2024/02/20 10:04:46;;;;;;;;;;;;;;;11.55;89.43;99245.63;68415;1279;1015274;-69
2024/02/20 10:07:49;;;;;;;;;;;;;;;11.47;89.63;99252.02;68416;1279;1015901;-69
2024/02/20 10:10:52;;;;;;;;;;;;;;;11.51;89.93;99242.92;68423;1279;1016620;-69
2024/02/20 10:13:55;;;;;;;;;;;;;;;11.53;90.16;99237.67;68420;1279;1016068;-69
2024/02/20 10:16:58;;;;;;;;;;;;;;;11.49;90.44;99241.77;68442;1279;1016035;-67
2024/02/20 10:20:00;;;;;;;;;;;;;;;11.51;90.24;99247.95;68429;1279;1015872;-69
2024/02/20 10:23:03;;;;;;;;;;;;;;;11.48;91.31;99242.70;68429;1279;1015907;-69
2024/02/20 10:26:07;;;;;;;;;;;;;;;11.56;90.75;99239.28;68421;1279;1015371;-69
2024/02/20 10:29:10;;;;;;;;;;;;;;;11.54;90.91;99240.92;68412;1279;1015997;-64
2024/02/20 10:32:12;;;;;;;;;;;;;;;11.53;91.18;99243.78;68418;1279;1015572;-69
2024/02/20 10:35:15;;;;;;;;;;;;;;;11.61;90.81;99244.93;68424;1279;1015303;-69
2024/02/20 10:38:18;;;;;;;;;;;;;;;11.47;91.20;99249.90;68422;1279;1015862;-70
2024/02/20 10:41:22;;;;;;;;;;;;;;;11.43;91.59;99253.49;68425;1279;1015402;-69
2024/02/20 10:44:24;;;;;;;;;;;;;;;11.28;93.13;99245.60;68425;1279;1014817;-69
2024/02/20 10:47:27;;;;;;;;;;;;;;;11.29;93.75;99243.45;68431;1279;1016275;-69
2024/02/20 10:50:31;;;;;;;;;;;;;;;11.39;92.61;99241.46;68408;1279;1016002;-69
2024/02/20 10:53:34;;;;;;;;;;;;;;;11.53;91.46;99234.77;68418;1279;1016181;-69
2024/02/20 10:56:37;;;;;;;;;;;;;;;11.49;90.79;99226.54;68428;1279;1015915;-69
2024/02/20 10:59:40;;;;;;;;;;;;;;;11.41;91.47;99225.38;68426;1279;1016040;-69
2024/02/20 11:02:42;;;;;;;;;;;;;;;11.56;91.43;99218.77;68424;1279;1014886;-69
2024/02/20 11:05:45;;;;;;;;;;;;;;;11.76;92.01;99212.17;68430;1279;1015499;-69
2024/02/20 11:08:48;;;;;;;;;;;;;;;11.94;91.31;99204.45;68427;1279;1015708;-69
2024/02/20 11:11:51;;;;;;;;;;;;;;;12.17;89.18;99205.50;68430;1279;1015334;-69
2024/02/20 11:14:54;;;;;;;;;;;;;;;12.29;86.07;99207.05;68452;1279;1015920;-69
2024/02/20 11:17:56;;;;;;;;;;;;;;;12.40;85.17;99202.16;68417;1279;1015959;-69
2024/02/20 11:20:59;;;;;;;;;;;;;;;12.54;85.57;99204.46;68428;1279;1015530;-69
2024/02/20 11:24:01;;;;;;;;;;;;;;;12.67;85.47;99197.84;68435;1279;1016000;-68
2024/02/20 11:27:06;;;;;;;;;;;;;;;12.78;83.18;99192.55;68421;1279;1015203;-69
2024/02/20 11:30:08;;;;;;;;;;;;;;;12.86;84.32;99198.05;68430;1279;1014364;-67
2024/02/20 11:33:11;;;;;;;;;;;;;;;13.08;82.03;99194.15;68426;1279;1015840;-69
2024/02/20 11:36:14;;;;;;;;;;;;;;;13.17;80.72;99194.81;68433;1279;1015679;-69
2024/02/20 11:39:16;;;;;;;;;;;;;;;13.10;80.37;99191.78;68438;1279;1015306;-68
2024/02/20 11:42:19;;;;;;;;;;;;;;;12.88;80.32;99186.20;68422;1279;1016004;-69
2024/02/20 11:45:24;;;;;;;;;;;;;;;12.94;82.01;99185.06;68419;1279;1015713;-69
2024/02/20 11:48:26;;;;;;;;;;;;;;;13.09;82.88;99188.80;68437;1279;1016118;-69
2024/02/20 11:51:30;;;;;;;;;;;;;;;13.18;79.69;99197.36;68429;1279;1016331;-69
2024/02/20 11:54:32;;;;;;;;;;;;;;;13.12;78.85;99194.09;68415;1279;1015679;-69
2024/02/20 11:57:35;;;;;;;;;;;;;;;13.31;80.24;99190.92;68446;1279;1016311;-69
2024/02/20 12:00:37;;;;;;;;;;;;;;;13.23;79.35;99194.94;68457;1279;1015515;-69
2024/02/20 12:03:42;;;;;;;;;;;;;;;13.24;80.75;99188.38;68444;1279;1015324;-69
2024/02/20 12:06:45;;;;;;;;;;;;;;;13.06;81.38;99195.52;68423;1279;1015631;-69
2024/02/20 12:09:48;;;;;;;;;;;;;;;13.21;79.41;99198.61;68431;1279;1015374;-69
2024/02/20 12:12:51;;;;;;;;;;;;;;;13.30;81.12;99197.96;68441;1279;1015524;-69
2024/02/20 12:15:53;;;;;;;;;;;;;;;13.27;80.54;99196.45;68429;1279;1014423;-69
2024/02/20 12:18:56;;;;;;;;;;;;;;;13.20;81.22;99195.11;68417;1279;1015980;-69
2024/02/20 12:21:59;;;;;;;;;;;;;;;13.19;80.59;99197.66;68426;1279;1015795;-69
2024/02/20 12:25:01;;;;;;;;;;;;;;;13.24;80.24;99191.25;68422;1279;1016078;-69
2024/02/20 12:28:04;;;;;;;;;;;;;;;13.21;78.62;99197.92;68439;1279;1015892;-69
2024/02/20 12:31:08;;;;;;;;;;;;;;;13.12;79.03;99198.48;68434;1280;1015191;-69
2024/02/20 12:34:11;;;;;;;;;;;;;;;13.07;79.73;99191.10;68439;1279;1015886;-63
2024/02/20 12:37:14;;;;;;;;;;;;;;;13.13;78.63;99194.86;68468;1279;1016182;-68
2024/02/20 12:40:20;;;;;;;;;;;;;;;13.14;78.86;99190.41;68464;1279;1015410;-69
2024/02/20 12:43:22;;;;;;;;;;;;;;;13.37;77.96;99185.41;68446;1279;1015528;-69
2024/02/20 12:46:25;;;;;;;;;;;;;;;13.35;79.87;99188.73;68424;1279;1016136;-69
2024/02/20 12:49:27;;;;;;;;;;;;;;;13.30;78.69;99193.83;68432;1279;1015258;-69
2024/02/20 12:52:30;;;;;;;;;;;;;;;13.26;79.93;99194.78;68432;1279;1015369;-68
2024/02/20 12:55:35;;;;;;;;;;;;;;;13.13;79.27;99193.85;68447;1279;1015647;-69
2024/02/20 12:58:37;;;;;;;;;;;;;;;13.18;80.39;99184.52;68437;1279;1015692;-68
2024/02/20 13:01:40;;;;;;;;;;;;;;;13.17;80.80;99194.61;68431;1279;1015169;-69
2024/02/20 13:04:42;;;;;;;;;;;;;;;13.15;79.83;99191.43;68448;1279;1015023;-69
2024/02/20 13:07:45;;;;;;;;;;;;;;;13.08;80.22;99190.48;68446;1279;1015793;-69
2024/02/20 13:10:47;;;;;;;;;;;;;;;13.19;79.81;99185.92;68441;1279;1015899;-69
2024/02/20 13:13:52;;;;;;;;;;;;;;;13.14;79.95;99187.13;68441;1279;1015962;-69
2024/02/20 13:16:54;;;;;;;;;;;;;;;13.13;81.47;99184.52;68421;1279;1015215;-68
2024/02/20 13:19:57;;;;;;;;;;;;;;;13.03;79.43;99189.90;68410;1279;1015579;-69
2024/02/20 13:23:00;;;;;;;;;;;;;;;13.07;79.45;99187.20;68437;1279;1016072;-69
2024/02/20 13:26:04;;;;;;;;;;;;;;;13.13;78.79;99186.98;68437;1279;1015670;-69
2024/02/20 13:29:10;;;;;;;;;;;;;;;13.16;79.80;99184.54;68433;1279;1015954;-69
2024/02/20 13:32:12;;;;;;;;;;;;;;;13.18;78.89;99188.42;68425;1279;1015935;-69
2024/02/20 13:35:15;;;;;;;;;;;;;;;13.31;79.48;99185.79;68429;1280;1016144;-69
2024/02/20 13:38:18;;;;;;;;;;;;;;;13.21;77.76;99189.98;68427;1279;1015763;-69
2024/02/20 13:41:26;;;;;;;;;;;;;;;13.24;77.47;99179.95;68439;1279;1015889;-69
2024/02/20 13:44:29;;;;;;;;;;;;;;;13.02;78.66;99188.76;68443;1279;1015228;-69
2024/02/20 13:47:32;;;;;;;;;;;;;;;13.03;77.78;99186.97;68452;1279;1015631;-68
2024/02/20 13:50:34;;;;;;;;;;;;;;;12.88;79.01;99185.15;68434;1279;1015488;-69
2024/02/20 13:53:37;;;;;;;;;;;;;;;12.90;79.04;99185.88;68426;1280;1016189;-67
2024/02/20 13:56:40;;;;;;;;;;;;;;;12.92;78.51;99184.67;68443;1279;1016063;-69
2024/02/20 13:59:42;;;;;;;;;;;;;;;12.96;78.28;99181.77;68418;1279;1016556;-69
2024/02/20 14:02:45;;;;;;;;;;;;;;;13.05;78.25;99187.84;68431;1280;1014606;-69
2024/02/20 14:05:48;;;;;;;;;;;;;;;13.18;77.77;99180.67;68426;1280;1015573;-66
2024/02/20 14:08:51;;;;;;;;;;;;;;;13.21;78.23;99179.82;68442;1280;1015851;-69
2024/02/20 14:11:54;;;;;;;;;;;;;;;12.93;79.40;99184.95;68414;1280;1016098;-69
2024/02/20 14:14:56;;;;;;;;;;;;;;;13.04;80.80;99179.35;68441;1279;1015613;-69
2024/02/20 14:17:59;;;;;;;;;;;;;;;13.28;80.29;99179.34;68442;1279;1016099;-69
2024/02/20 14:21:02;;;;;;;;;;;;;;;13.34;78.71;99179.46;68438;1279;1015486;-69
2024/02/20 14:24:04;;;;;;;;;;;;;;;13.26;78.98;99181.54;68449;1279;1015871;-69
2024/02/20 14:27:07;;;;;;;;;;;;;;;13.27;79.21;99179.75;68437;1279;1016019;-68
2024/02/20 14:30:09;;;;;;;;;;;;;;;13.24;79.07;99184.20;68442;1279;1015390;-69
2024/02/20 14:33:12;;;;;;;;;;;;;;;13.21;78.95;99181.73;68413;1279;1015839;-68
2024/02/20 14:36:14;;;;;;;;;;;;;;;13.02;78.39;99186.10;68431;1279;1016148;-69
2024/02/20 14:39:17;;;;;;;;;;;;;;;12.98;79.66;99183.41;68442;1280;1015987;-68
2024/02/20 14:42:19;;;;;;;;;;;;;;;12.80;80.86;99178.23;68426;1279;1015957;-69
2024/02/20 14:45:22;;;;;;;;;;;;;;;12.76;81.97;99180.99;68446;1280;1015725;-69
2024/02/20 14:48:25;;;;;;;;;;;;;;;12.81;81.43;99184.13;68429;1280;1016063;-68
2024/02/20 14:51:27;;;;;;;;;;;;;;;12.60;82.99;99190.41;68433;1279;1016072;-69
2024/02/20 14:54:29;;;;;;;;;;;;;;;12.53;84.03;99185.09;68456;1280;1014650;-68
2024/02/20 14:57:34;;;;;;;;;;;;;;;12.54;84.88;99186.40;68448;1280;1015587;-69
2024/02/20 15:00:37;;;;;;;;;;;;;;;12.51;84.92;99190.30;68440;1280;1015459;-69
2024/02/20 15:03:39;;;;;;;;;;;;;;;12.37;85.39;99197.09;68438;1280;1015300;-69
2024/02/20 15:06:43;;;;;;;;;;;;;;;12.32;85.70;99200.95;68427;1280;1015694;-69
2024/02/20 15:09:46;;;;;;;;;;;;;;;12.15;85.33;99211.37;68426;1269;1016823;-68
2024/02/20 15:12:49;;;;;;;;;;;;;;;11.85;87.52;99225.98;68409;1279;1003137;-69
2024/02/20 15:15:51;;;;;;;;;;;;;;;11.59;89.06;99230.13;68436;1280;1015817;-68
2024/02/20 15:18:54;;;;;;;;;;;;;;;11.56;90.92;99238.20;68437;1279;1016115;-69
2024/02/20 15:21:57;;;;;;;;;;;;;;;11.50;90.48;99234.65;68447;1279;1016134;-69
2024/02/20 15:24:59;;;;;;;;;;;;;;;11.39;89.92;99232.14;68412;1280;1016113;-69
2024/02/20 15:28:02;;;;;;;;;;;;;;;11.46;89.92;99234.60;68432;1279;1015988;-69